sensor_id;sensor_type;location;lat;lon;timestamp;P1;durP1;ratioP1;P2;durP2;ratioP2
65174;SDS011;51761;42.126;24.752;2023-03-05T00:02:10;82.63;;;41.85;;
65174;SDS011;51761;42.126;24.752;2023-03-05T00:04:37;89.65;;;42.40;;
65174;SDS011;51761;42.126;24.752;2023-03-05T00:07:03;83.20;;;39.70;;
65174;SDS011;51761;42.126;24.752;2023-03-05T00:09:29;94.88;;;42.60;;
65174;SDS011;51761;42.126;24.752;2023-03-05T00:11:55;90.43;;;41.92;;
65174;SDS011;51761;42.126;24.752;2023-03-05T00:14:20;87.13;;;40.60;;
65174;SDS011;51761;42.126;24.752;2023-03-05T00:16:46;94.13;;;42.15;;
65174;SDS011;51761;42.126;24.752;2023-03-05T00:19:12;95.78;;;44.17;;
65174;SDS011;51761;42.126;24.752;2023-03-05T00:21:38;87.30;;;41.50;;
65174;SDS011;51761;42.126;24.752;2023-03-05T00:24:07;88.05;;;41.30;;
65174;SDS011;51761;42.126;24.752;2023-03-05T00:26:36;94.97;;;43.17;;
65174;SDS011;51761;42.126;24.752;2023-03-05T00:29:03;83.57;;;39.25;;
65174;SDS011;51761;42.126;24.752;2023-03-05T00:31:29;87.50;;;40.97;;
65174;SDS011;51761;42.126;24.752;2023-03-05T00:34:01;86.20;;;41.80;;
65174;SDS011;51761;42.126;24.752;2023-03-05T00:36:29;86.28;;;41.00;;
65174;SDS011;51761;42.126;24.752;2023-03-05T00:38:55;85.93;;;41.42;;
65174;SDS011;51761;42.126;24.752;2023-03-05T00:41:21;81.90;;;39.58;;
65174;SDS011;51761;42.126;24.752;2023-03-05T00:43:47;80.75;;;39.00;;
65174;SDS011;51761;42.126;24.752;2023-03-05T00:46:13;76.50;;;39.53;;
65174;SDS011;51761;42.126;24.752;2023-03-05T00:48:39;84.88;;;40.67;;
65174;SDS011;51761;42.126;24.752;2023-03-05T00:51:04;84.07;;;39.45;;
65174;SDS011;51761;42.126;24.752;2023-03-05T00:53:30;86.75;;;39.58;;
65174;SDS011;51761;42.126;24.752;2023-03-05T00:55:56;83.82;;;38.97;;
65174;SDS011;51761;42.126;24.752;2023-03-05T00:58:22;80.45;;;39.33;;
65174;SDS011;51761;42.126;24.752;2023-03-05T01:00:48;86.07;;;39.30;;
65174;SDS011;51761;42.126;24.752;2023-03-05T01:03:17;78.00;;;37.95;;
65174;SDS011;51761;42.126;24.752;2023-03-05T01:05:43;86.72;;;39.88;;
65174;SDS011;51761;42.126;24.752;2023-03-05T01:08:09;85.82;;;41.40;;
65174;SDS011;51761;42.126;24.752;2023-03-05T01:10:34;87.07;;;40.72;;
65174;SDS011;51761;42.126;24.752;2023-03-05T01:13:00;86.18;;;41.55;;
65174;SDS011;51761;42.126;24.752;2023-03-05T01:15:26;85.18;;;39.80;;
65174;SDS011;51761;42.126;24.752;2023-03-05T01:17:51;76.35;;;39.35;;
65174;SDS011;51761;42.126;24.752;2023-03-05T01:20:18;91.22;;;41.22;;
65174;SDS011;51761;42.126;24.752;2023-03-05T01:22:44;83.03;;;42.15;;
65174;SDS011;51761;42.126;24.752;2023-03-05T01:25:11;87.28;;;41.45;;
65174;SDS011;51761;42.126;24.752;2023-03-05T01:27:38;80.47;;;39.22;;
65174;SDS011;51761;42.126;24.752;2023-03-05T01:30:04;84.10;;;41.65;;
65174;SDS011;51761;42.126;24.752;2023-03-05T01:32:32;87.50;;;41.33;;
65174;SDS011;51761;42.126;24.752;2023-03-05T01:34:59;87.63;;;39.88;;
65174;SDS011;51761;42.126;24.752;2023-03-05T01:37:25;91.32;;;43.58;;
65174;SDS011;51761;42.126;24.752;2023-03-05T01:39:50;80.93;;;40.83;;
65174;SDS011;51761;42.126;24.752;2023-03-05T01:42:16;85.25;;;40.33;;
65174;SDS011;51761;42.126;24.752;2023-03-05T01:44:58;73.15;;;34.72;;
65174;SDS011;51761;42.126;24.752;2023-03-05T01:47:27;70.07;;;32.65;;
65174;SDS011;51761;42.126;24.752;2023-03-05T01:49:52;66.10;;;32.03;;
65174;SDS011;51761;42.126;24.752;2023-03-05T01:52:19;65.57;;;29.67;;
65174;SDS011;51761;42.126;24.752;2023-03-05T01:54:48;67.20;;;32.42;;
65174;SDS011;51761;42.126;24.752;2023-03-05T01:57:22;65.07;;;31.50;;
65174;SDS011;51761;42.126;24.752;2023-03-05T01:59:52;63.78;;;30.35;;
65174;SDS011;51761;42.126;24.752;2023-03-05T02:02:21;62.40;;;31.45;;
65174;SDS011;51761;42.126;24.752;2023-03-05T02:07:32;73.70;;;33.50;;
65174;SDS011;51761;42.126;24.752;2023-03-05T02:10:01;74.55;;;36.08;;
65174;SDS011;51761;42.126;24.752;2023-03-05T02:12:39;68.20;;;34.15;;
65174;SDS011;51761;42.126;24.752;2023-03-05T02:15:05;68.30;;;35.88;;
65174;SDS011;51761;42.126;24.752;2023-03-05T02:17:31;78.45;;;36.35;;
65174;SDS011;51761;42.126;24.752;2023-03-05T02:20:01;79.50;;;36.10;;
65174;SDS011;51761;42.126;24.752;2023-03-05T02:22:38;83.22;;;38.70;;
65174;SDS011;51761;42.126;24.752;2023-03-05T02:30:30;73.70;;;34.67;;
65174;SDS011;51761;42.126;24.752;2023-03-05T02:32:56;75.68;;;37.50;;
65174;SDS011;51761;42.126;24.752;2023-03-05T02:35:22;83.97;;;36.45;;
65174;SDS011;51761;42.126;24.752;2023-03-05T02:37:48;74.03;;;36.50;;
65174;SDS011;51761;42.126;24.752;2023-03-05T02:40:13;73.88;;;34.47;;
65174;SDS011;51761;42.126;24.752;2023-03-05T02:42:40;64.18;;;32.42;;
65174;SDS011;51761;42.126;24.752;2023-03-05T02:45:05;64.78;;;31.02;;
65174;SDS011;51761;42.126;24.752;2023-03-05T02:47:32;63.47;;;31.45;;
65174;SDS011;51761;42.126;24.752;2023-03-05T02:49:57;60.15;;;29.77;;
65174;SDS011;51761;42.126;24.752;2023-03-05T02:52:23;61.08;;;30.20;;
65174;SDS011;51761;42.126;24.752;2023-03-05T02:54:49;56.08;;;29.77;;
65174;SDS011;51761;42.126;24.752;2023-03-05T02:57:15;66.65;;;31.48;;
65174;SDS011;51761;42.126;24.752;2023-03-05T02:59:41;62.83;;;29.73;;
65174;SDS011;51761;42.126;24.752;2023-03-05T03:02:07;70.15;;;35.15;;
65174;SDS011;51761;42.126;24.752;2023-03-05T03:04:32;64.78;;;31.80;;
65174;SDS011;51761;42.126;24.752;2023-03-05T03:06:58;63.08;;;32.08;;
65174;SDS011;51761;42.126;24.752;2023-03-05T03:09:23;66.07;;;32.53;;
65174;SDS011;51761;42.126;24.752;2023-03-05T03:11:50;61.25;;;31.83;;
65174;SDS011;51761;42.126;24.752;2023-03-05T03:14:16;63.85;;;31.75;;
65174;SDS011;51761;42.126;24.752;2023-03-05T03:16:42;62.95;;;31.25;;
65174;SDS011;51761;42.126;24.752;2023-03-05T03:19:07;65.10;;;32.97;;
65174;SDS011;51761;42.126;24.752;2023-03-05T03:21:33;65.60;;;32.03;;
65174;SDS011;51761;42.126;24.752;2023-03-05T03:23:58;65.10;;;31.85;;
65174;SDS011;51761;42.126;24.752;2023-03-05T03:26:24;64.80;;;31.90;;
65174;SDS011;51761;42.126;24.752;2023-03-05T03:28:49;69.97;;;30.83;;
65174;SDS011;51761;42.126;24.752;2023-03-05T03:31:15;69.38;;;31.10;;
65174;SDS011;51761;42.126;24.752;2023-03-05T03:33:40;56.50;;;26.95;;
65174;SDS011;51761;42.126;24.752;2023-03-05T03:36:06;63.15;;;29.83;;
65174;SDS011;51761;42.126;24.752;2023-03-05T03:38:32;58.60;;;29.15;;
65174;SDS011;51761;42.126;24.752;2023-03-05T03:40:57;57.30;;;28.00;;
65174;SDS011;51761;42.126;24.752;2023-03-05T03:43:23;64.45;;;30.08;;
65174;SDS011;51761;42.126;24.752;2023-03-05T03:45:48;59.83;;;28.58;;
65174;SDS011;51761;42.126;24.752;2023-03-05T03:48:14;61.38;;;29.35;;
65174;SDS011;51761;42.126;24.752;2023-03-05T03:50:39;65.60;;;31.73;;
65174;SDS011;51761;42.126;24.752;2023-03-05T03:53:06;67.55;;;30.98;;
65174;SDS011;51761;42.126;24.752;2023-03-05T03:55:32;58.55;;;29.60;;
65174;SDS011;51761;42.126;24.752;2023-03-05T03:57:58;61.97;;;30.05;;
65174;SDS011;51761;42.126;24.752;2023-03-05T04:00:24;60.33;;;28.55;;
65174;SDS011;51761;42.126;24.752;2023-03-05T04:02:49;59.45;;;28.38;;
65174;SDS011;51761;42.126;24.752;2023-03-05T04:05:15;66.93;;;30.20;;
65174;SDS011;51761;42.126;24.752;2023-03-05T04:07:40;61.33;;;29.60;;
65174;SDS011;51761;42.126;24.752;2023-03-05T04:10:06;55.50;;;28.73;;
65174;SDS011;51761;42.126;24.752;2023-03-05T04:12:32;58.15;;;28.38;;
65174;SDS011;51761;42.126;24.752;2023-03-05T04:14:58;67.35;;;30.10;;
65174;SDS011;51761;42.126;24.752;2023-03-05T04:17:23;62.28;;;30.10;;
65174;SDS011;51761;42.126;24.752;2023-03-05T04:19:49;63.33;;;29.00;;
65174;SDS011;51761;42.126;24.752;2023-03-05T04:22:15;57.22;;;29.88;;
65174;SDS011;51761;42.126;24.752;2023-03-05T04:24:42;58.20;;;28.35;;
65174;SDS011;51761;42.126;24.752;2023-03-05T04:27:08;58.67;;;29.30;;
65174;SDS011;51761;42.126;24.752;2023-03-05T04:29:34;58.78;;;28.52;;
65174;SDS011;51761;42.126;24.752;2023-03-05T04:32:00;63.55;;;28.85;;
65174;SDS011;51761;42.126;24.752;2023-03-05T04:34:25;58.03;;;29.17;;
65174;SDS011;51761;42.126;24.752;2023-03-05T04:36:51;58.25;;;28.77;;
65174;SDS011;51761;42.126;24.752;2023-03-05T04:39:16;62.85;;;29.73;;
65174;SDS011;51761;42.126;24.752;2023-03-05T04:41:44;58.03;;;29.65;;
65174;SDS011;51761;42.126;24.752;2023-03-05T04:44:11;62.85;;;29.33;;
65174;SDS011;51761;42.126;24.752;2023-03-05T04:46:36;59.85;;;28.35;;
65174;SDS011;51761;42.126;24.752;2023-03-05T04:49:01;53.40;;;27.20;;
65174;SDS011;51761;42.126;24.752;2023-03-05T04:51:27;59.97;;;29.65;;
65174;SDS011;51761;42.126;24.752;2023-03-05T04:53:53;60.55;;;29.40;;
65174;SDS011;51761;42.126;24.752;2023-03-05T04:56:18;56.58;;;28.27;;
65174;SDS011;51761;42.126;24.752;2023-03-05T04:58:44;64.85;;;31.27;;
65174;SDS011;51761;42.126;24.752;2023-03-05T05:01:09;60.42;;;30.05;;
65174;SDS011;51761;42.126;24.752;2023-03-05T05:03:35;57.13;;;28.27;;
65174;SDS011;51761;42.126;24.752;2023-03-05T05:06:00;64.72;;;28.45;;
65174;SDS011;51761;42.126;24.752;2023-03-05T05:08:26;61.38;;;28.27;;
65174;SDS011;51761;42.126;24.752;2023-03-05T05:10:56;60.75;;;28.63;;
65174;SDS011;51761;42.126;24.752;2023-03-05T05:13:27;59.90;;;28.73;;
65174;SDS011;51761;42.126;24.752;2023-03-05T05:15:53;61.22;;;29.60;;
65174;SDS011;51761;42.126;24.752;2023-03-05T05:18:19;63.65;;;28.38;;
65174;SDS011;51761;42.126;24.752;2023-03-05T05:20:45;58.15;;;27.23;;
65174;SDS011;51761;42.126;24.752;2023-03-05T05:23:10;57.78;;;28.15;;
65174;SDS011;51761;42.126;24.752;2023-03-05T05:25:36;63.60;;;29.35;;
65174;SDS011;51761;42.126;24.752;2023-03-05T05:28:01;57.78;;;28.98;;
65174;SDS011;51761;42.126;24.752;2023-03-05T05:30:27;61.42;;;29.55;;
65174;SDS011;51761;42.126;24.752;2023-03-05T05:32:52;63.33;;;31.17;;
65174;SDS011;51761;42.126;24.752;2023-03-05T05:35:18;58.88;;;28.23;;
65174;SDS011;51761;42.126;24.752;2023-03-05T05:37:43;55.47;;;27.15;;
65174;SDS011;51761;42.126;24.752;2023-03-05T05:40:09;52.58;;;26.27;;
65174;SDS011;51761;42.126;24.752;2023-03-05T05:42:35;59.45;;;28.52;;
65174;SDS011;51761;42.126;24.752;2023-03-05T05:45:00;56.70;;;28.20;;
65174;SDS011;51761;42.126;24.752;2023-03-05T05:47:27;56.85;;;28.67;;
65174;SDS011;51761;42.126;24.752;2023-03-05T05:49:53;56.65;;;26.52;;
65174;SDS011;51761;42.126;24.752;2023-03-05T05:52:19;53.92;;;25.65;;
65174;SDS011;51761;42.126;24.752;2023-03-05T05:54:46;51.28;;;26.40;;
65174;SDS011;51761;42.126;24.752;2023-03-05T05:57:11;55.38;;;26.48;;
65174;SDS011;51761;42.126;24.752;2023-03-05T05:59:37;60.63;;;28.33;;
65174;SDS011;51761;42.126;24.752;2023-03-05T06:02:03;58.83;;;29.10;;
65174;SDS011;51761;42.126;24.752;2023-03-05T06:04:29;78.55;;;40.88;;
65174;SDS011;51761;42.126;24.752;2023-03-05T06:06:55;58.25;;;31.80;;
65174;SDS011;51761;42.126;24.752;2023-03-05T06:09:22;78.18;;;38.65;;
65174;SDS011;51761;42.126;24.752;2023-03-05T06:11:47;60.33;;;32.00;;
65174;SDS011;51761;42.126;24.752;2023-03-05T06:14:13;53.97;;;29.40;;
65174;SDS011;51761;42.126;24.752;2023-03-05T06:16:38;52.25;;;27.90;;
65174;SDS011;51761;42.126;24.752;2023-03-05T06:19:05;61.00;;;31.27;;
65174;SDS011;51761;42.126;24.752;2023-03-05T06:21:30;53.33;;;27.63;;
65174;SDS011;51761;42.126;24.752;2023-03-05T06:23:56;52.40;;;28.63;;
65174;SDS011;51761;42.126;24.752;2023-03-05T06:26:22;64.63;;;30.65;;
65174;SDS011;51761;42.126;24.752;2023-03-05T06:28:49;56.55;;;30.25;;
65174;SDS011;51761;42.126;24.752;2023-03-05T06:31:18;53.53;;;29.08;;
65174;SDS011;51761;42.126;24.752;2023-03-05T06:33:46;61.60;;;30.92;;
65174;SDS011;51761;42.126;24.752;2023-03-05T06:36:13;55.03;;;29.10;;
65174;SDS011;51761;42.126;24.752;2023-03-05T06:38:41;61.25;;;31.65;;
65174;SDS011;51761;42.126;24.752;2023-03-05T06:41:08;53.67;;;28.20;;
65174;SDS011;51761;42.126;24.752;2023-03-05T06:43:39;57.60;;;29.00;;
65174;SDS011;51761;42.126;24.752;2023-03-05T06:46:07;54.72;;;29.70;;
65174;SDS011;51761;42.126;24.752;2023-03-05T06:48:37;54.15;;;28.90;;
65174;SDS011;51761;42.126;24.752;2023-03-05T06:51:03;62.83;;;30.67;;
65174;SDS011;51761;42.126;24.752;2023-03-05T06:53:28;58.92;;;29.88;;
65174;SDS011;51761;42.126;24.752;2023-03-05T06:55:55;59.33;;;29.67;;
65174;SDS011;51761;42.126;24.752;2023-03-05T06:58:21;57.53;;;29.60;;
65174;SDS011;51761;42.126;24.752;2023-03-05T07:00:47;58.08;;;31.42;;
65174;SDS011;51761;42.126;24.752;2023-03-05T07:03:12;60.60;;;29.67;;
65174;SDS011;51761;42.126;24.752;2023-03-05T07:05:39;50.08;;;28.38;;
65174;SDS011;51761;42.126;24.752;2023-03-05T07:08:05;52.60;;;28.35;;
65174;SDS011;51761;42.126;24.752;2023-03-05T07:10:31;50.33;;;28.20;;
65174;SDS011;51761;42.126;24.752;2023-03-05T07:12:56;55.35;;;27.63;;
65174;SDS011;51761;42.126;24.752;2023-03-05T07:15:24;50.95;;;26.58;;
65174;SDS011;51761;42.126;24.752;2023-03-05T07:17:49;40.80;;;21.92;;
65174;SDS011;51761;42.126;24.752;2023-03-05T07:20:15;41.70;;;24.13;;
65174;SDS011;51761;42.126;24.752;2023-03-05T07:22:40;54.42;;;24.60;;
65174;SDS011;51761;42.126;24.752;2023-03-05T07:25:06;49.35;;;26.08;;
65174;SDS011;51761;42.126;24.752;2023-03-05T07:27:35;74.68;;;36.55;;
65174;SDS011;51761;42.126;24.752;2023-03-05T07:30:02;53.70;;;28.83;;
65174;SDS011;51761;42.126;24.752;2023-03-05T07:32:28;54.53;;;25.38;;
65174;SDS011;51761;42.126;24.752;2023-03-05T07:34:54;43.45;;;23.45;;
65174;SDS011;51761;42.126;24.752;2023-03-05T07:37:19;40.17;;;22.27;;
65174;SDS011;51761;42.126;24.752;2023-03-05T07:39:44;41.05;;;22.45;;
65174;SDS011;51761;42.126;24.752;2023-03-05T07:42:10;37.50;;;23.40;;
65174;SDS011;51761;42.126;24.752;2023-03-05T07:44:35;53.72;;;28.75;;
65174;SDS011;51761;42.126;24.752;2023-03-05T07:47:03;40.65;;;24.55;;
65174;SDS011;51761;42.126;24.752;2023-03-05T07:49:29;37.63;;;23.88;;
65174;SDS011;51761;42.126;24.752;2023-03-05T07:51:54;30.13;;;18.98;;
65174;SDS011;51761;42.126;24.752;2023-03-05T07:54:20;37.88;;;19.83;;
65174;SDS011;51761;42.126;24.752;2023-03-05T07:56:45;34.85;;;19.05;;
65174;SDS011;51761;42.126;24.752;2023-03-05T07:59:11;34.17;;;19.38;;
65174;SDS011;51761;42.126;24.752;2023-03-05T08:01:37;42.55;;;24.13;;
65174;SDS011;51761;42.126;24.752;2023-03-05T08:04:04;38.13;;;21.33;;
65174;SDS011;51761;42.126;24.752;2023-03-05T08:06:30;37.45;;;20.17;;
65174;SDS011;51761;42.126;24.752;2023-03-05T08:08:56;38.92;;;22.42;;
65174;SDS011;51761;42.126;24.752;2023-03-05T08:11:22;32.55;;;19.42;;
65174;SDS011;51761;42.126;24.752;2023-03-05T08:13:47;40.80;;;17.67;;
65174;SDS011;51761;42.126;24.752;2023-03-05T08:16:14;34.95;;;17.55;;
65174;SDS011;51761;42.126;24.752;2023-03-05T08:18:42;37.95;;;18.00;;
65174;SDS011;51761;42.126;24.752;2023-03-05T08:21:14;39.33;;;18.83;;
65174;SDS011;51761;42.126;24.752;2023-03-05T08:23:44;31.40;;;18.50;;
65174;SDS011;51761;42.126;24.752;2023-03-05T08:26:13;34.63;;;17.98;;
65174;SDS011;51761;42.126;24.752;2023-03-05T08:28:41;35.85;;;17.60;;
65174;SDS011;51761;42.126;24.752;2023-03-05T08:31:08;39.25;;;19.33;;
65174;SDS011;51761;42.126;24.752;2023-03-05T08:33:34;37.08;;;19.83;;
65174;SDS011;51761;42.126;24.752;2023-03-05T08:36:00;39.20;;;20.10;;
65174;SDS011;51761;42.126;24.752;2023-03-05T08:38:25;38.17;;;19.25;;
65174;SDS011;51761;42.126;24.752;2023-03-05T08:40:52;44.67;;;21.60;;
65174;SDS011;51761;42.126;24.752;2023-03-05T08:43:17;34.75;;;20.10;;
65174;SDS011;51761;42.126;24.752;2023-03-05T08:45:42;41.63;;;20.75;;
65174;SDS011;51761;42.126;24.752;2023-03-05T08:48:08;36.15;;;20.80;;
65174;SDS011;51761;42.126;24.752;2023-03-05T08:50:37;45.55;;;22.35;;
65174;SDS011;51761;42.126;24.752;2023-03-05T08:53:02;46.83;;;22.52;;
65174;SDS011;51761;42.126;24.752;2023-03-05T08:55:27;39.70;;;19.42;;
65174;SDS011;51761;42.126;24.752;2023-03-05T08:57:53;35.22;;;19.02;;
65174;SDS011;51761;42.126;24.752;2023-03-05T09:00:18;39.55;;;21.40;;
65174;SDS011;51761;42.126;24.752;2023-03-05T09:02:44;40.80;;;18.77;;
65174;SDS011;51761;42.126;24.752;2023-03-05T09:05:10;47.67;;;22.08;;
65174;SDS011;51761;42.126;24.752;2023-03-05T09:07:36;46.13;;;21.15;;
65174;SDS011;51761;42.126;24.752;2023-03-05T09:10:02;44.45;;;20.77;;
65174;SDS011;51761;42.126;24.752;2023-03-05T09:12:29;44.45;;;21.13;;
65174;SDS011;51761;42.126;24.752;2023-03-05T09:14:54;46.05;;;21.67;;
65174;SDS011;51761;42.126;24.752;2023-03-05T09:17:21;45.45;;;21.52;;
65174;SDS011;51761;42.126;24.752;2023-03-05T09:19:47;44.63;;;20.85;;
65174;SDS011;51761;42.126;24.752;2023-03-05T09:22:13;42.65;;;21.60;;
65174;SDS011;51761;42.126;24.752;2023-03-05T09:24:39;41.42;;;20.17;;
65174;SDS011;51761;42.126;24.752;2023-03-05T09:27:04;40.38;;;19.73;;
65174;SDS011;51761;42.126;24.752;2023-03-05T09:29:30;38.50;;;19.50;;
65174;SDS011;51761;42.126;24.752;2023-03-05T09:31:56;46.67;;;24.50;;
65174;SDS011;51761;42.126;24.752;2023-03-05T09:34:21;45.20;;;20.48;;
65174;SDS011;51761;42.126;24.752;2023-03-05T09:36:47;42.42;;;20.33;;
65174;SDS011;51761;42.126;24.752;2023-03-05T09:39:13;38.47;;;19.48;;
65174;SDS011;51761;42.126;24.752;2023-03-05T09:52:53;37.83;;;17.02;;
65174;SDS011;51761;42.126;24.752;2023-03-05T09:55:32;39.75;;;18.67;;
65174;SDS011;51761;42.126;24.752;2023-03-05T09:58:12;34.15;;;18.40;;
65174;SDS011;51761;42.126;24.752;2023-03-05T10:00:44;35.53;;;18.65;;
65174;SDS011;51761;42.126;24.752;2023-03-05T10:03:15;34.97;;;17.85;;
65174;SDS011;51761;42.126;24.752;2023-03-05T10:14:14;35.03;;;18.00;;
65174;SDS011;51761;42.126;24.752;2023-03-05T10:16:53;36.88;;;18.65;;
65174;SDS011;51761;42.126;24.752;2023-03-05T10:19:33;38.95;;;19.73;;
65174;SDS011;51761;42.126;24.752;2023-03-05T10:22:27;34.45;;;18.40;;
65174;SDS011;51761;42.126;24.752;2023-03-05T10:25:22;37.88;;;19.70;;
65174;SDS011;51761;42.126;24.752;2023-03-05T10:45:13;36.88;;;18.52;;
65174;SDS011;51761;42.126;24.752;2023-03-05T10:47:53;37.60;;;19.35;;
65174;SDS011;51761;42.126;24.752;2023-03-05T10:50:24;34.85;;;16.60;;
65174;SDS011;51761;42.126;24.752;2023-03-05T10:53:02;43.40;;;19.35;;
65174;SDS011;51761;42.126;24.752;2023-03-05T10:55:29;39.35;;;16.95;;
65174;SDS011;51761;42.126;24.752;2023-03-05T10:57:55;28.50;;;14.40;;
65174;SDS011;51761;42.126;24.752;2023-03-05T11:00:21;27.67;;;14.50;;
65174;SDS011;51761;42.126;24.752;2023-03-05T11:02:52;31.35;;;17.25;;
65174;SDS011;51761;42.126;24.752;2023-03-05T11:11:11;29.73;;;15.00;;
65174;SDS011;51761;42.126;24.752;2023-03-05T11:16:16;31.42;;;14.50;;
65174;SDS011;51761;42.126;24.752;2023-03-05T11:18:46;28.73;;;14.57;;
65174;SDS011;51761;42.126;24.752;2023-03-05T11:21:20;26.30;;;14.57;;
65174;SDS011;51761;42.126;24.752;2023-03-05T11:26:32;32.70;;;16.08;;
65174;SDS011;51761;42.126;24.752;2023-03-05T11:28:59;31.25;;;16.58;;
65174;SDS011;51761;42.126;24.752;2023-03-05T11:31:28;28.27;;;12.95;;
65174;SDS011;51761;42.126;24.752;2023-03-05T11:39:21;28.65;;;13.75;;
65174;SDS011;51761;42.126;24.752;2023-03-05T11:41:52;24.63;;;13.23;;
65174;SDS011;51761;42.126;24.752;2023-03-05T11:44:32;25.80;;;14.73;;
65174;SDS011;51761;42.126;24.752;2023-03-05T11:49:59;25.17;;;12.70;;
65174;SDS011;51761;42.126;24.752;2023-03-05T11:53:01;24.70;;;13.00;;
65174;SDS011;51761;42.126;24.752;2023-03-05T12:01:14;26.13;;;13.77;;
65174;SDS011;51761;42.126;24.752;2023-03-05T12:03:43;33.05;;;15.23;;
65174;SDS011;51761;42.126;24.752;2023-03-05T12:08:59;24.20;;;12.65;;
65174;SDS011;51761;42.126;24.752;2023-03-05T12:11:27;25.30;;;13.38;;
65174;SDS011;51761;42.126;24.752;2023-03-05T12:14:05;24.25;;;13.60;;
65174;SDS011;51761;42.126;24.752;2023-03-05T12:16:40;31.15;;;15.05;;
65174;SDS011;51761;42.126;24.752;2023-03-05T12:21:58;28.52;;;13.77;;
65174;SDS011;51761;42.126;24.752;2023-03-05T12:29:28;25.67;;;13.50;;
65174;SDS011;51761;42.126;24.752;2023-03-05T12:32:48;26.27;;;13.75;;
65174;SDS011;51761;42.126;24.752;2023-03-05T12:35:02;26.48;;;13.27;;
65174;SDS011;51761;42.126;24.752;2023-03-05T12:52:55;26.30;;;12.05;;
65174;SDS011;51761;42.126;24.752;2023-03-05T12:55:26;24.85;;;13.65;;
65174;SDS011;51761;42.126;24.752;2023-03-05T12:57:58;29.25;;;14.60;;
65174;SDS011;51761;42.126;24.752;2023-03-05T13:00:34;26.05;;;12.57;;
65174;SDS011;51761;42.126;24.752;2023-03-05T13:03:08;20.48;;;10.70;;
65174;SDS011;51761;42.126;24.752;2023-03-05T13:05:38;20.63;;;11.35;;
65174;SDS011;51761;42.126;24.752;2023-03-05T13:08:26;22.05;;;11.45;;
65174;SDS011;51761;42.126;24.752;2023-03-05T13:11:07;18.70;;;11.52;;
65174;SDS011;51761;42.126;24.752;2023-03-05T13:13:43;25.35;;;12.60;;
65174;SDS011;51761;42.126;24.752;2023-03-05T13:18:44;42.13;;;19.30;;
65174;SDS011;51761;42.126;24.752;2023-03-05T13:21:12;39.03;;;20.42;;
65174;SDS011;51761;42.126;24.752;2023-03-05T13:23:47;38.08;;;19.35;;
65174;SDS011;51761;42.126;24.752;2023-03-05T13:26:21;35.90;;;19.13;;
65174;SDS011;51761;42.126;24.752;2023-03-05T13:31:44;38.60;;;18.50;;
65174;SDS011;51761;42.126;24.752;2023-03-05T13:36:49;32.35;;;16.95;;
65174;SDS011;51761;42.126;24.752;2023-03-05T13:39:19;35.20;;;16.20;;
65174;SDS011;51761;42.126;24.752;2023-03-05T13:41:59;31.80;;;15.77;;
65174;SDS011;51761;42.126;24.752;2023-03-05T13:44:27;29.33;;;15.38;;
65174;SDS011;51761;42.126;24.752;2023-03-05T13:47:16;31.40;;;17.45;;
65174;SDS011;51761;42.126;24.752;2023-03-05T13:49:44;34.22;;;16.08;;
65174;SDS011;51761;42.126;24.752;2023-03-05T13:52:11;35.95;;;16.65;;
65174;SDS011;51761;42.126;24.752;2023-03-05T13:54:47;34.75;;;17.48;;
65174;SDS011;51761;42.126;24.752;2023-03-05T13:57:30;30.83;;;16.50;;
65174;SDS011;51761;42.126;24.752;2023-03-05T14:03:00;25.90;;;15.38;;
65174;SDS011;51761;42.126;24.752;2023-03-05T14:05:52;34.33;;;16.55;;
65174;SDS011;51761;42.126;24.752;2023-03-05T14:08:23;29.75;;;16.35;;
65174;SDS011;51761;42.126;24.752;2023-03-05T14:10:51;34.75;;;16.55;;
65174;SDS011;51761;42.126;24.752;2023-03-05T14:13:19;32.33;;;17.08;;
65174;SDS011;51761;42.126;24.752;2023-03-05T14:18:32;34.97;;;17.20;;
65174;SDS011;51761;42.126;24.752;2023-03-05T14:23:35;33.67;;;16.73;;
65174;SDS011;51761;42.126;24.752;2023-03-05T14:29:02;31.70;;;17.02;;
65174;SDS011;51761;42.126;24.752;2023-03-05T14:34:42;35.47;;;18.00;;
65174;SDS011;51761;42.126;24.752;2023-03-05T14:37:34;34.92;;;18.17;;
65174;SDS011;51761;42.126;24.752;2023-03-05T14:45:23;31.05;;;17.55;;
65174;SDS011;51761;42.126;24.752;2023-03-05T14:47:54;41.50;;;19.17;;
65174;SDS011;51761;42.126;24.752;2023-03-05T14:50:22;35.15;;;18.23;;
65174;SDS011;51761;42.126;24.752;2023-03-05T14:53:00;41.17;;;19.77;;
65174;SDS011;51761;42.126;24.752;2023-03-05T14:55:41;38.75;;;19.10;;
65174;SDS011;51761;42.126;24.752;2023-03-05T14:58:14;36.78;;;19.73;;
65174;SDS011;51761;42.126;24.752;2023-03-05T15:00:42;38.55;;;17.90;;
65174;SDS011;51761;42.126;24.752;2023-03-05T15:03:11;41.08;;;19.85;;
65174;SDS011;51761;42.126;24.752;2023-03-05T15:05:38;39.22;;;19.58;;
65174;SDS011;51761;42.126;24.752;2023-03-05T15:08:04;44.08;;;19.58;;
65174;SDS011;51761;42.126;24.752;2023-03-05T15:10:30;40.53;;;20.33;;
65174;SDS011;51761;42.126;24.752;2023-03-05T15:12:56;41.53;;;20.95;;
65174;SDS011;51761;42.126;24.752;2023-03-05T15:15:21;42.53;;;21.40;;
65174;SDS011;51761;42.126;24.752;2023-03-05T15:17:48;41.75;;;20.35;;
65174;SDS011;51761;42.126;24.752;2023-03-05T15:20:20;39.05;;;20.73;;
65174;SDS011;51761;42.126;24.752;2023-03-05T15:22:47;44.15;;;21.27;;
65174;SDS011;51761;42.126;24.752;2023-03-05T15:25:13;37.67;;;19.25;;
65174;SDS011;51761;42.126;24.752;2023-03-05T15:27:40;35.97;;;19.00;;
65174;SDS011;51761;42.126;24.752;2023-03-05T15:30:06;41.60;;;19.92;;
65174;SDS011;51761;42.126;24.752;2023-03-05T15:32:33;39.17;;;19.02;;
65174;SDS011;51761;42.126;24.752;2023-03-05T15:34:58;42.63;;;19.55;;
65174;SDS011;51761;42.126;24.752;2023-03-05T15:37:24;38.72;;;18.13;;
65174;SDS011;51761;42.126;24.752;2023-03-05T15:39:50;43.30;;;20.42;;
65174;SDS011;51761;42.126;24.752;2023-03-05T15:42:16;39.70;;;18.50;;
65174;SDS011;51761;42.126;24.752;2023-03-05T15:44:42;38.30;;;19.92;;
65174;SDS011;51761;42.126;24.752;2023-03-05T15:47:07;39.58;;;18.95;;
65174;SDS011;51761;42.126;24.752;2023-03-05T15:49:33;34.67;;;18.73;;
65174;SDS011;51761;42.126;24.752;2023-03-05T15:51:58;41.13;;;20.40;;
65174;SDS011;51761;42.126;24.752;2023-03-05T15:54:24;39.10;;;18.60;;
65174;SDS011;51761;42.126;24.752;2023-03-05T15:56:50;38.45;;;19.48;;
65174;SDS011;51761;42.126;24.752;2023-03-05T15:59:17;42.13;;;19.08;;
65174;SDS011;51761;42.126;24.752;2023-03-05T16:01:44;49.83;;;23.30;;
65174;SDS011;51761;42.126;24.752;2023-03-05T16:04:14;33.78;;;17.75;;
65174;SDS011;51761;42.126;24.752;2023-03-05T16:06:40;33.55;;;18.40;;
65174;SDS011;51761;42.126;24.752;2023-03-05T16:09:07;31.50;;;17.20;;
65174;SDS011;51761;42.126;24.752;2023-03-05T16:11:33;38.45;;;18.88;;
65174;SDS011;51761;42.126;24.752;2023-03-05T16:14:02;35.90;;;17.13;;
65174;SDS011;51761;42.126;24.752;2023-03-05T16:16:31;37.78;;;17.42;;
65174;SDS011;51761;42.126;24.752;2023-03-05T16:18:59;32.38;;;17.13;;